• Join FlightAware (Why Join?)
  • Login
  • US Flag 
03:26AM EDT


 

Airport Tracker/Info


-or-


 

Live Flight TrackerFlight Track Log ✈ N6030E ✈ 16-Jul-2013 ✈ KSSI - KEVB

Flight Track Log - Related Links

Times and Time Zones

All times are in EDT time to prevent confusion due to time zone crossing. See the N6030E flight status page for this flight to view local times or setup timezone preferences in your user account.

Time Position Orientation Groundspeed Altitude Reporting Facility
EDT Latitude Longitude Course Direction KTS MPH feet Rate Location/Type
09:09PM 31.1036 -81.4175 180° South 94 108 2,300  Level Jacksonville Center
09:10PM 31.0933 -81.4247 211° Southwest 97 112 2,500 600 Climbing Jacksonville Center
09:10PM 31.0767 -81.4322 201° Southwest 101 116 3,000 660 Climbing Jacksonville Center
09:11PM 31.0539 -81.4472 209° Southwest 106 122 3,600 600 Climbing Jacksonville Center
09:12PM 31.0308 -81.4475 181° South 100 115 4,200 540 Climbing Jacksonville Center
09:13PM 31.0058 -81.4408 167° South 90 104 4,700 540 Climbing Jacksonville Center
09:14PM 31.0341 -81.4333 180° South  Level FlightAware Approximate
09:14PM 30.9806 -81.4361 171° South 90 104 5,300  Level Jacksonville Center
09:15PM 30.9575 -81.4317 171° South 90 104 5,700 360 Climbing Jacksonville Center
09:16PM 30.9325 -81.4272 171° South 90 104 6,100 180 Climbing Jacksonville Center
09:17PM 30.9053 -81.4206 168° South 90 104 6,100 -60 Level Jacksonville Center
09:18PM 30.8761 -81.4161 173° South 90 104 6,000 -120 Descending Jacksonville Center
09:20PM 30.8361 -81.4047 166° South 91 105 5,900 -60 Descending Jacksonville Center
09:21PM 30.8111 -81.4025 176° South 93 107 5,900  Level Jacksonville Center
09:22PM 30.7839 -81.3958 168° South 96 110 6,000  Climbing Jacksonville Center
09:23PM 30.7567 -81.3914 172° South 94 108 5,900 -60 Descending Jacksonville Center
09:24PM 30.7317 -81.3869 171° South 93 107 5,900  Level Jacksonville Center
09:25PM 30.7086 -81.3850 176° South 94 108 5,900  Level Jacksonville Center
09:26PM 30.6814 -81.3756 163° South 95 109 5,900  Level Jacksonville Center
09:27PM 30.6519 -81.3714 173° South 93 107 5,900  Level Jacksonville Center
09:28PM 30.6289 -81.3667 170° South 94 108 5,900  Level Jacksonville Center
09:29PM 30.6019 -81.3625 172° South 93 107 5,900  Level Jacksonville Center
09:30PM 30.5767 -81.3581 171° South 93 107 5,900  Level Jacksonville Center
09:31PM 30.5517 -81.3536 171° South 93 107 5,900  Level Jacksonville Center
09:32PM 30.5264 -81.3467 167° South 93 107 5,900  Level Jacksonville Center
09:33PM 30.5014 -81.3422 171° South 91 105 5,900  Level Jacksonville Center
09:34PM 30.4764 -81.3381 172° South 88 101 6,000  Climbing Jacksonville Center
09:35PM 30.4511 -81.3336 171° South 92 106 6,000 -60 Level Jacksonville Center
09:36PM 30.4219 -81.3267 168° South 93 107 5,900 -60 Descending Jacksonville Center
09:37PM 30.3967 -81.3225 172° South 91 105 5,900  Level Jacksonville Center
09:38PM 30.3694 -81.3203 176° South 91 105 5,900  Level Jacksonville Center
09:39PM 30.3464 -81.3136 166° South 92 106 6,000  Climbing Jacksonville Center
09:40PM 30.3214 -81.3092 171° South 91 105 5,900 -60 Descending Jacksonville Center
09:41PM 30.2942 -81.3025 168° South 90 104 5,900  Level Jacksonville Center
09:42PM 30.2753 -81.3003 174° South 90 104 5,900  Level Jacksonville Center
09:43PM 30.2481 -81.2936 168° South 90 104 5,900  Level Jacksonville Center
09:44PM 30.2189 -81.2892 172° South 93 107 5,900  Level Jacksonville Center
09:45PM 30.1958 -81.2847 171° South 91 105 5,900  Level Jacksonville Center
09:46PM 30.1686 -81.2781 168° South 93 107 5,900  Level Jacksonville Center
09:47PM 30.1456 -81.2761 176° South 92 106 5,900  Level Jacksonville Center
09:48PM 30.1183 -81.2717 172° South 91 105 5,900  Level Jacksonville Center
09:49PM 30.0933 -81.2650 167° South 91 105 5,900  Level Jacksonville Center
09:50PM 30.0703 -81.2581 165° South 89 102 5,900  Level Jacksonville Center
09:51PM 30.0453 -81.2561 176° South 91 105 5,900  Level Jacksonville Center
09:52PM 30.0222 -81.2494 166° South 92 106 6,000  Climbing Jacksonville Center
09:53PM 29.9950 -81.2472 176° South 90 104 5,900 -60 Descending Jacksonville Center
09:54PM 29.9719 -81.2406 166° South 90 104 5,900  Level Jacksonville Center
09:55PM 29.9383 -81.2339 170° South 92 106 5,900  Level Jacksonville Center
09:56PM 29.9133 -81.2297 172° South 90 104 5,900  Level Jacksonville Center
09:57PM 29.8883 -81.2300 181° South 85 98 6,000  Climbing Jacksonville Center
09:59PM 29.8611 -81.2258 172° South 87 100 6,000  Level Jacksonville Center
09:59PM 29.8422 -81.2164 157° South 91 105 6,000 -60 Level Jacksonville Center
10:00PM 29.8169 -81.2122 172° South 90 104 5,900 -360 Descending Jacksonville Center
10:02PM 29.7878 -81.2150 185° South 105 121 5,300 -600 Descending Jacksonville Center
10:03PM 29.7586 -81.2178 185° South 105 121 4,700 -660 Descending Jacksonville Center
10:04PM 29.7272 -81.2161 177° South 103 119 4,000 -660 Descending Jacksonville Center
10:05PM 29.6939 -81.2167 181° South 103 119 3,400 -600 Descending Jacksonville Center
10:06PM 29.6667 -81.2169 181° South 102 117 2,900 -240 Descending Jacksonville Center
10:07PM 29.6397 -81.2175 181° South 97 112 3,000  Climbing Jacksonville Center
10:08PM 29.6125 -81.2181 181° South 99 114 3,000  Level Jacksonville Center
10:09PM 29.5875 -81.2208 186° South 101 116 3,000  Level Jacksonville Center
10:10PM 29.5603 -81.2214 181° South 96 110 3,000  Level Jacksonville Center
10:11PM 29.5333 -81.2242 185° South 95 109 3,000 -60 Level Jacksonville Center
10:12PM 29.5083 -81.2244 181° South 94 108 2,900  Descending Jacksonville Center
10:13PM 29.4811 -81.2275 186° South 93 107 3,000  Climbing Jacksonville Center
10:14PM 29.4539 -81.2278 181° South 95 109 3,000  Level Jacksonville Center
10:15PM 29.4289 -81.2283 181° South 96 110 3,000  Level Jacksonville Center
10:16PM 29.3997 -81.2311 185° South 96 110 3,000  Level Jacksonville Center
10:17PM 29.3725 -81.2317 181° South 98 113 3,000  Level Jacksonville Center
10:18PM 29.3433 -81.2322 181° South 97 112 3,000  Level Jacksonville Center
10:19PM 29.3161 -81.2278 172° South 94 108 3,000  Level Jacksonville Center
10:20PM 29.2933 -81.2233 170° South 90 104 3,000  Level Jacksonville Center
10:21PM 29.2661 -81.2192 172° South 93 107 3,000  Level Jacksonville Center
10:22PM 29.2408 -81.2147 171° South 91 105 3,000  Level Jacksonville Center
10:23PM 29.2117 -81.2106 173° South 92 106 3,000  Level Jacksonville Center
10:24PM 29.1886 -81.2061 170° South 91 105 3,100  Climbing Jacksonville Center
10:25PM 29.1614 -81.1994 168° South 94 108 3,100  Level Jacksonville Center
10:26PM 29.1342 -81.1953 172° South 88 101 3,100  Level Jacksonville Center
10:27PM 29.1111 -81.1908 170° South 91 105 3,100  Level Jacksonville Center
10:28PM 29.0861 -81.1889 176° South 94 108 3,100 -120 Level Jacksonville Center
10:29PM 29.0611 -81.1847 172° South 94 108 2,900 -360 Descending Jacksonville Center
10:30PM 29.0339 -81.1781 168° South 97 112 2,400 -600 Descending Jacksonville Center
10:31PM 29.0083 -81.1569 144° Southeast 95 109 1,800 -420 Descending Jacksonville Center
10:32PM 28.9894 -81.1431 147° Southeast 105 121 1,600 -60 Descending Jacksonville Center
10:33PM 28.9872 -81.1242 98° East 65 75 1,700  Climbing Jacksonville Center
10:34PM 28.9889 -81.1075 83° East 67 77 1,700  Level Jacksonville Center